sensor_id;sensor_type;location;lat;lon;timestamp;pressure;altitude;pressure_sealevel;temperature;humidity
61474;BME280;53694;49.784;30.150;2023-05-29T00:00:59;99881.41;;;11.61;58.29
61474;BME280;53694;49.784;30.150;2023-05-29T00:02:01;99875.05;;;11.57;58.51
61474;BME280;53694;49.784;30.150;2023-05-29T00:03:03;99870.70;;;11.56;58.84
61474;BME280;53694;49.784;30.150;2023-05-29T00:04:04;99872.63;;;11.55;59.39
61474;BME280;53694;49.784;30.150;2023-05-29T00:05:06;99874.59;;;11.55;59.03
61474;BME280;53694;49.784;30.150;2023-05-29T00:06:08;99877.80;;;11.57;59.72
61474;BME280;53694;49.784;30.150;2023-05-29T00:07:09;99876.21;;;11.56;59.12
61474;BME280;53694;49.784;30.150;2023-05-29T00:08:11;99875.84;;;11.57;60.12
61474;BME280;53694;49.784;30.150;2023-05-29T00:09:13;99866.80;;;11.57;59.20
61474;BME280;53694;49.784;30.150;2023-05-29T00:10:14;99873.88;;;11.58;59.11
61474;BME280;53694;49.784;30.150;2023-05-29T00:11:16;99877.42;;;11.58;60.01
61474;BME280;53694;49.784;30.150;2023-05-29T00:12:18;99870.75;;;11.59;58.72
61474;BME280;53694;49.784;30.150;2023-05-29T00:13:19;99878.22;;;11.59;59.22
61474;BME280;53694;49.784;30.150;2023-05-29T00:14:21;99870.34;;;11.57;58.73
61474;BME280;53694;49.784;30.150;2023-05-29T00:15:23;99875.38;;;11.55;58.66
61474;BME280;53694;49.784;30.150;2023-05-29T00:16:24;99867.51;;;11.54;58.98
61474;BME280;53694;49.784;30.150;2023-05-29T00:17:26;99864.34;;;11.51;58.67
61474;BME280;53694;49.784;30.150;2023-05-29T00:18:27;99872.51;;;11.48;58.57
61474;BME280;53694;49.784;30.150;2023-05-29T00:19:29;99871.64;;;11.44;58.73
61474;BME280;53694;49.784;30.150;2023-05-29T00:20:31;99868.02;;;11.40;58.31
61474;BME280;53694;49.784;30.150;2023-05-29T00:21:33;99864.39;;;11.36;58.97
61474;BME280;53694;49.784;30.150;2023-05-29T00:22:34;99868.65;;;11.33;59.37
61474;BME280;53694;49.784;30.150;2023-05-29T00:23:35;99865.90;;;11.33;59.22
61474;BME280;53694;49.784;30.150;2023-05-29T00:24:37;99856.06;;;11.32;59.64
61474;BME280;53694;49.784;30.150;2023-05-29T00:25:38;99864.69;;;11.31;59.60
61474;BME280;53694;49.784;30.150;2023-05-29T00:26:40;99863.89;;;11.30;59.21
61474;BME280;53694;49.784;30.150;2023-05-29T00:27:42;99859.11;;;11.27;58.89
61474;BME280;53694;49.784;30.150;2023-05-29T00:28:43;99862.56;;;11.24;59.19
61474;BME280;53694;49.784;30.150;2023-05-29T00:29:45;99865.31;;;11.24;59.51
61474;BME280;53694;49.784;30.150;2023-05-29T00:30:47;99855.11;;;11.24;60.65
61474;BME280;53694;49.784;30.150;2023-05-29T00:31:49;99860.61;;;11.24;60.70
61474;BME280;53694;49.784;30.150;2023-05-29T00:32:50;99864.60;;;11.27;61.05
61474;BME280;53694;49.784;30.150;2023-05-29T00:33:52;99866.11;;;11.24;60.25
61474;BME280;53694;49.784;30.150;2023-05-29T00:34:54;99863.73;;;11.23;60.73
61474;BME280;53694;49.784;30.150;2023-05-29T00:35:55;99856.27;;;11.23;61.21
61474;BME280;53694;49.784;30.150;2023-05-29T00:36:59;99855.48;;;11.23;60.95
61474;BME280;53694;49.784;30.150;2023-05-29T00:38:00;99856.20;;;11.20;59.55
61474;BME280;53694;49.784;30.150;2023-05-29T00:39:02;99857.73;;;11.17;59.92
61474;BME280;53694;49.784;30.150;2023-05-29T00:40:04;99858.06;;;11.16;60.28
61474;BME280;53694;49.784;30.150;2023-05-29T00:41:06;99860.39;;;11.14;59.86
61474;BME280;53694;49.784;30.150;2023-05-29T00:42:08;99862.69;;;11.12;60.36
61474;BME280;53694;49.784;30.150;2023-05-29T00:43:09;99865.44;;;11.12;60.48
61474;BME280;53694;49.784;30.150;2023-05-29T00:44:11;99861.11;;;11.11;60.26
61474;BME280;53694;49.784;30.150;2023-05-29T00:45:12;99865.02;;;11.10;60.56
61474;BME280;53694;49.784;30.150;2023-05-29T00:46:15;99859.15;;;11.11;60.92
61474;BME280;53694;49.784;30.150;2023-05-29T00:47:17;99869.77;;;11.13;60.67
61474;BME280;53694;49.784;30.150;2023-05-29T00:48:19;99861.98;;;11.15;60.98
61474;BME280;53694;49.784;30.150;2023-05-29T00:49:22;99874.93;;;11.14;60.45
61474;BME280;53694;49.784;30.150;2023-05-29T00:50:24;99871.39;;;11.14;60.53
61474;BME280;53694;49.784;30.150;2023-05-29T00:51:27;99874.14;;;11.14;60.48
61474;BME280;53694;49.784;30.150;2023-05-29T00:52:29;99875.27;;;11.13;60.92
61474;BME280;53694;49.784;30.150;2023-05-29T00:53:31;99867.39;;;11.11;60.70
61474;BME280;53694;49.784;30.150;2023-05-29T00:54:33;99874.84;;;11.11;60.97
61474;BME280;53694;49.784;30.150;2023-05-29T00:55:35;99876.72;;;11.07;60.80
61474;BME280;53694;49.784;30.150;2023-05-29T00:56:39;99879.84;;;11.05;61.21
61474;BME280;53694;49.784;30.150;2023-05-29T00:57:42;99873.55;;;11.05;61.18
61474;BME280;53694;49.784;30.150;2023-05-29T00:58:44;99874.34;;;11.05;60.36
61474;BME280;53694;49.784;30.150;2023-05-29T00:59:47;99878.59;;;11.03;59.96
61474;BME280;53694;49.784;30.150;2023-05-29T01:00:49;99867.88;;;10.97;59.70
61474;BME280;53694;49.784;30.150;2023-05-29T01:01:51;99881.16;;;10.95;60.30
61474;BME280;53694;49.784;30.150;2023-05-29T01:02:52;99877.98;;;10.93;60.02
61474;BME280;53694;49.784;30.150;2023-05-29T01:03:57;99871.25;;;10.91;59.91
61474;BME280;53694;49.784;30.150;2023-05-29T01:05:00;99875.95;;;10.90;60.35
61474;BME280;53694;49.784;30.150;2023-05-29T01:06:02;99877.20;;;10.93;60.72
61474;BME280;53694;49.784;30.150;2023-05-29T01:07:04;99873.38;;;10.97;61.09
61474;BME280;53694;49.784;30.150;2023-05-29T01:08:06;99874.25;;;11.01;60.92
61474;BME280;53694;49.784;30.150;2023-05-29T01:09:08;99884.54;;;11.05;60.69
61474;BME280;53694;49.784;30.150;2023-05-29T01:10:10;99881.05;;;11.08;60.33
61474;BME280;53694;49.784;30.150;2023-05-29T01:13:08;99883.09;;;11.11;59.49
61474;BME280;53694;49.784;30.150;2023-05-29T01:14:15;99880.63;;;11.06;59.53
61474;BME280;53694;49.784;30.150;2023-05-29T01:16:38;99887.54;;;10.99;60.74
61474;BME280;53694;49.784;30.150;2023-05-29T01:19:46;99887.54;;;10.99;60.83
61474;BME280;53694;49.784;30.150;2023-05-29T01:20:53;99886.75;;;10.99;61.31
61474;BME280;53694;49.784;30.150;2023-05-29T01:24:38;99884.73;;;10.96;60.97
61474;BME280;53694;49.784;30.150;2023-05-29T01:27:09;99880.14;;;10.84;61.16
61474;BME280;53694;49.784;30.150;2023-05-29T01:28:12;99884.75;;;10.80;61.66
61474;BME280;53694;49.784;30.150;2023-05-29T01:29:17;99883.50;;;10.78;61.55
61474;BME280;53694;49.784;30.150;2023-05-29T01:30:19;99893.70;;;10.77;61.63
61474;BME280;53694;49.784;30.150;2023-05-29T01:31:23;99883.87;;;10.76;61.28
61474;BME280;53694;49.784;30.150;2023-05-29T01:32:27;99888.91;;;10.74;61.84
61474;BME280;53694;49.784;30.150;2023-05-29T01:33:29;99888.91;;;10.74;61.91
61474;BME280;53694;49.784;30.150;2023-05-29T01:34:30;99878.65;;;10.71;61.41
61474;BME280;53694;49.784;30.150;2023-05-29T01:35:32;99880.52;;;10.67;61.08
61474;BME280;53694;49.784;30.150;2023-05-29T01:36:34;99880.33;;;10.60;61.54
61474;BME280;53694;49.784;30.150;2023-05-29T01:37:35;99884.94;;;10.56;62.20
61474;BME280;53694;49.784;30.150;2023-05-29T01:38:37;99885.64;;;10.53;61.96
61474;BME280;53694;49.784;30.150;2023-05-29T01:39:38;99887.16;;;10.50;61.88
61474;BME280;53694;49.784;30.150;2023-05-29T01:40:40;99885.48;;;10.45;61.79
61474;BME280;53694;49.784;30.150;2023-05-29T01:41:45;99889.36;;;10.44;62.30
61474;BME280;53694;49.784;30.150;2023-05-29T01:42:48;99886.97;;;10.43;62.18
61474;BME280;53694;49.784;30.150;2023-05-29T01:43:51;99879.11;;;10.41;62.49
61474;BME280;53694;49.784;30.150;2023-05-29T01:44:52;99882.98;;;10.40;62.71
61474;BME280;53694;49.784;30.150;2023-05-29T01:45:55;99889.63;;;10.39;63.24
61474;BME280;53694;49.784;30.150;2023-05-29T01:46:57;99883.70;;;10.37;62.92
61474;BME280;53694;49.784;30.150;2023-05-29T01:47:59;99885.99;;;10.35;63.26
61474;BME280;53694;49.784;30.150;2023-05-29T01:49:00;99889.89;;;10.34;63.72
61474;BME280;53694;49.784;30.150;2023-05-29T01:50:04;99894.59;;;10.34;63.70
61474;BME280;53694;49.784;30.150;2023-05-29T01:51:06;99894.92;;;10.32;63.77
61474;BME280;53694;49.784;30.150;2023-05-29T01:52:07;99893.34;;;10.31;63.98
61474;BME280;53694;49.784;30.150;2023-05-29T01:53:09;99897.23;;;10.30;63.67
61474;BME280;53694;49.784;30.150;2023-05-29T01:54:11;99902.73;;;10.30;64.38
61474;BME280;53694;49.784;30.150;2023-05-29T01:55:13;99893.70;;;10.30;64.39
61474;BME280;53694;49.784;30.150;2023-05-29T01:56:15;99906.27;;;10.31;64.37
61474;BME280;53694;49.784;30.150;2023-05-29T01:57:17;99901.58;;;10.31;64.04
61474;BME280;53694;49.784;30.150;2023-05-29T01:58:20;99897.23;;;10.30;64.07
61474;BME280;53694;49.784;30.150;2023-05-29T01:59:22;99908.58;;;10.29;63.99
61474;BME280;53694;49.784;30.150;2023-05-29T02:00:24;99902.30;;;10.28;65.37
61474;BME280;53694;49.784;30.150;2023-05-29T02:01:26;99900.88;;;10.34;65.74
61474;BME280;53694;49.784;30.150;2023-05-29T02:02:28;99899.72;;;10.35;65.69
61474;BME280;53694;49.784;30.150;2023-05-29T02:03:30;99900.18;;;10.37;66.04
61474;BME280;53694;49.784;30.150;2023-05-29T02:04:31;99905.67;;;10.37;66.71
61474;BME280;53694;49.784;30.150;2023-05-29T02:05:33;99904.52;;;10.38;66.35
61474;BME280;53694;49.784;30.150;2023-05-29T02:06:34;99901.77;;;10.38;66.92
61474;BME280;53694;49.784;30.150;2023-05-29T02:07:36;99907.63;;;10.37;66.94
61474;BME280;53694;49.784;30.150;2023-05-29T02:08:38;99903.72;;;10.38;68.15
61474;BME280;53694;49.784;30.150;2023-05-29T02:09:39;99904.94;;;10.40;68.01
61474;BME280;53694;49.784;30.150;2023-05-29T02:10:41;99908.41;;;10.37;68.32
61474;BME280;53694;49.784;30.150;2023-05-29T02:11:43;99900.18;;;10.37;68.78
61474;BME280;53694;49.784;30.150;2023-05-29T02:12:44;99893.07;;;10.36;69.11
61474;BME280;53694;49.784;30.150;2023-05-29T02:13:46;99898.12;;;10.34;69.42
61474;BME280;53694;49.784;30.150;2023-05-29T02:14:47;99894.49;;;10.30;69.79
61474;BME280;53694;49.784;30.150;2023-05-29T02:15:49;99894.49;;;10.30;69.79
61474;BME280;53694;49.784;30.150;2023-05-29T02:16:51;99901.48;;;10.28;69.44
61474;BME280;53694;49.784;30.150;2023-05-29T02:17:52;99902.20;;;10.24;69.66
61474;BME280;53694;49.784;30.150;2023-05-29T02:18:54;99906.05;;;10.23;69.81
61474;BME280;53694;49.784;30.150;2023-05-29T02:19:55;99901.71;;;10.22;70.14
61474;BME280;53694;49.784;30.150;2023-05-29T02:20:57;99897.02;;;10.23;70.36
61474;BME280;53694;49.784;30.150;2023-05-29T02:21:58;99894.27;;;10.23;70.31
61474;BME280;53694;49.784;30.150;2023-05-29T02:23:00;99899.64;;;10.47;69.33
61474;BME280;53694;49.784;30.150;2023-05-29T02:24:01;99899.64;;;10.47;69.33
61474;BME280;53694;49.784;30.150;2023-05-29T02:25:04;99903.52;;;10.78;68.36
61474;BME280;53694;49.784;30.150;2023-05-29T02:26:06;99901.45;;;11.07;66.31
61474;BME280;53694;49.784;30.150;2023-05-29T02:27:07;99899.19;;;11.28;65.95
61474;BME280;53694;49.784;30.150;2023-05-29T02:28:09;99891.52;;;11.37;65.35
61474;BME280;53694;49.784;30.150;2023-05-29T02:29:10;99895.06;;;11.38;64.72
61474;BME280;53694;49.784;30.150;2023-05-29T02:30:12;99897.76;;;11.34;64.75
61474;BME280;53694;49.784;30.150;2023-05-29T02:31:14;99883.84;;;11.27;65.11
61474;BME280;53694;49.784;30.150;2023-05-29T02:32:15;99888.84;;;11.21;65.69
61474;BME280;53694;49.784;30.150;2023-05-29T02:33:17;99891.77;;;11.13;66.03
61474;BME280;53694;49.784;30.150;2023-05-29T02:34:19;99897.91;;;11.06;65.19
61474;BME280;53694;49.784;30.150;2023-05-29T02:35:20;99898.53;;;10.99;65.83
61474;BME280;53694;49.784;30.150;2023-05-29T02:36:22;99888.53;;;10.91;65.44
61474;BME280;53694;49.784;30.150;2023-05-29T02:37:23;99896.71;;;10.88;65.18
61474;BME280;53694;49.784;30.150;2023-05-29T02:38:25;99890.67;;;10.82;66.09
61474;BME280;53694;49.784;30.150;2023-05-29T02:39:26;99890.95;;;10.77;67.02
61474;BME280;53694;49.784;30.150;2023-05-29T02:40:28;99889.09;;;10.65;67.97
61474;BME280;53694;49.784;30.150;2023-05-29T02:41:29;99889.09;;;10.65;67.97
61474;BME280;53694;49.784;30.150;2023-05-29T02:42:31;99883.44;;;10.58;68.16
61474;BME280;53694;49.784;30.150;2023-05-29T02:43:32;99887.26;;;10.54;68.11
61474;BME280;53694;49.784;30.150;2023-05-29T02:44:34;99881.22;;;10.48;68.19
61474;BME280;53694;49.784;30.150;2023-05-29T02:45:35;99883.07;;;10.44;68.54
61474;BME280;53694;49.784;30.150;2023-05-29T02:46:37;99882.98;;;10.40;69.03
61474;BME280;53694;49.784;30.150;2023-05-29T02:47:38;99891.94;;;10.37;69.21
61474;BME280;53694;49.784;30.150;2023-05-29T02:48:40;99885.20;;;10.35;69.84
61474;BME280;53694;49.784;30.150;2023-05-29T02:49:42;99891.48;;;10.35;70.62
61474;BME280;53694;49.784;30.150;2023-05-29T02:50:43;99889.89;;;10.34;70.46
61474;BME280;53694;49.784;30.150;2023-05-29T02:51:45;99892.18;;;10.32;71.00
61474;BME280;53694;49.784;30.150;2023-05-29T02:52:46;99892.38;;;10.39;71.08
61474;BME280;53694;49.784;30.150;2023-05-29T02:53:48;99888.14;;;10.58;71.05
61474;BME280;53694;49.784;30.150;2023-05-29T02:54:50;99884.90;;;10.87;70.41
61474;BME280;53694;49.784;30.150;2023-05-29T02:55:51;99893.97;;;11.23;69.24
61474;BME280;53694;49.784;30.150;2023-05-29T02:56:53;99891.97;;;11.59;68.56
61474;BME280;53694;49.784;30.150;2023-05-29T02:57:54;99891.97;;;11.97;67.87
61474;BME280;53694;49.784;30.150;2023-05-29T02:58:56;99888.66;;;12.31;66.69
61474;BME280;53694;49.784;30.150;2023-05-29T02:59:58;99890.12;;;12.47;65.48
61474;BME280;53694;49.784;30.150;2023-05-29T03:00:59;99889.81;;;12.53;64.94
61474;BME280;53694;49.784;30.150;2023-05-29T03:02:01;99889.34;;;12.47;64.57
61474;BME280;53694;49.784;30.150;2023-05-29T03:03:02;99889.17;;;12.36;64.87
61474;BME280;53694;49.784;30.150;2023-05-29T03:04:04;99891.65;;;12.22;64.99
61474;BME280;53694;49.784;30.150;2023-05-29T03:05:06;99891.40;;;12.08;65.28
61474;BME280;53694;49.784;30.150;2023-05-29T03:06:08;99885.56;;;11.90;66.06
61474;BME280;53694;49.784;30.150;2023-05-29T03:07:09;99892.28;;;11.73;66.56
61474;BME280;53694;49.784;30.150;2023-05-29T03:08:11;99890.75;;;11.56;67.55
61474;BME280;53694;49.784;30.150;2023-05-29T03:09:12;99893.19;;;11.42;68.35
61474;BME280;53694;49.784;30.150;2023-05-29T03:10:14;99894.47;;;11.29;69.31
61474;BME280;53694;49.784;30.150;2023-05-29T03:11:16;99898.50;;;11.15;69.90
61474;BME280;53694;49.784;30.150;2023-05-29T03:12:17;99912.02;;;11.05;70.30
61474;BME280;53694;49.784;30.150;2023-05-29T03:13:19;99896.86;;;10.95;71.35
61474;BME280;53694;49.784;30.150;2023-05-29T03:14:21;99897.93;;;10.90;72.29
61474;BME280;53694;49.784;30.150;2023-05-29T03:15:22;99896.77;;;10.91;72.49
61474;BME280;53694;49.784;30.150;2023-05-29T03:16:24;99897.76;;;11.34;71.78
61474;BME280;53694;49.784;30.150;2023-05-29T03:17:25;99897.76;;;11.34;71.78
61474;BME280;53694;49.784;30.150;2023-05-29T03:18:27;99894.87;;;11.66;70.81
61474;BME280;53694;49.784;30.150;2023-05-29T03:19:28;99899.14;;;12.02;69.40
61474;BME280;53694;49.784;30.150;2023-05-29T03:20:30;99899.02;;;12.37;68.92
61474;BME280;53694;49.784;30.150;2023-05-29T03:21:32;99894.47;;;12.71;67.24
61474;BME280;53694;49.784;30.150;2023-05-29T03:22:34;99898.03;;;12.98;65.88
61474;BME280;53694;49.784;30.150;2023-05-29T03:23:36;99897.03;;;13.10;64.81
61474;BME280;53694;49.784;30.150;2023-05-29T03:24:37;99900.58;;;13.11;63.83
61474;BME280;53694;49.784;30.150;2023-05-29T03:25:39;99896.56;;;13.05;63.71
61474;BME280;53694;49.784;30.150;2023-05-29T03:26:40;99900.45;;;12.77;62.86
61474;BME280;53694;49.784;30.150;2023-05-29T03:27:42;99900.45;;;12.77;62.86
61474;BME280;53694;49.784;30.150;2023-05-29T03:28:43;99905.75;;;12.63;63.19
61474;BME280;53694;49.784;30.150;2023-05-29T03:29:45;99901.52;;;12.46;63.21
61474;BME280;53694;49.784;30.150;2023-05-29T03:30:46;99907.52;;;12.29;63.32
61474;BME280;53694;49.784;30.150;2023-05-29T03:31:48;99902.90;;;12.13;63.52
61474;BME280;53694;49.784;30.150;2023-05-29T03:32:49;99899.09;;;11.98;63.93
61474;BME280;53694;49.784;30.150;2023-05-29T03:33:51;99907.25;;;11.75;64.93
61474;BME280;53694;49.784;30.150;2023-05-29T03:34:53;99907.25;;;11.75;64.93
61474;BME280;53694;49.784;30.150;2023-05-29T03:35:54;99905.95;;;11.69;65.63
61474;BME280;53694;49.784;30.150;2023-05-29T03:36:56;99907.05;;;11.65;65.61
61474;BME280;53694;49.784;30.150;2023-05-29T03:37:57;99904.59;;;11.60;65.65
61474;BME280;53694;49.784;30.150;2023-05-29T03:38:59;99905.30;;;11.57;65.69
61474;BME280;53694;49.784;30.150;2023-05-29T03:40:00;99896.17;;;11.53;65.80
61474;BME280;53694;49.784;30.150;2023-05-29T03:41:02;99899.64;;;11.49;66.33
61474;BME280;53694;49.784;30.150;2023-05-29T03:42:04;99904.27;;;11.45;66.13
61474;BME280;53694;49.784;30.150;2023-05-29T03:43:06;99903.84;;;11.43;66.00
61474;BME280;53694;49.784;30.150;2023-05-29T03:44:07;99898.61;;;11.38;65.32
61474;BME280;53694;49.784;30.150;2023-05-29T03:45:10;99896.59;;;11.35;65.40
61474;BME280;53694;49.784;30.150;2023-05-29T03:46:12;99906.01;;;11.34;65.50
61474;BME280;53694;49.784;30.150;2023-05-29T03:47:14;99903.97;;;11.31;65.48
61474;BME280;53694;49.784;30.150;2023-05-29T03:48:15;99900.69;;;11.25;65.28
61474;BME280;53694;49.784;30.150;2023-05-29T03:49:17;99904.52;;;11.21;65.62
61474;BME280;53694;49.784;30.150;2023-05-29T03:50:19;99903.63;;;11.17;65.47
61474;BME280;53694;49.784;30.150;2023-05-29T03:51:20;99909.87;;;11.14;64.78
61474;BME280;53694;49.784;30.150;2023-05-29T03:52:22;99903.49;;;11.10;64.61
61474;BME280;53694;49.784;30.150;2023-05-29T03:53:24;99909.70;;;11.07;65.22
61474;BME280;53694;49.784;30.150;2023-05-29T03:54:25;99901.03;;;11.05;65.50
61474;BME280;53694;49.784;30.150;2023-05-29T03:55:27;99905.70;;;11.04;65.93
61474;BME280;53694;49.784;30.150;2023-05-29T03:56:29;99905.70;;;11.04;65.93
61474;BME280;53694;49.784;30.150;2023-05-29T03:57:30;99902.16;;;11.04;65.62
61474;BME280;53694;49.784;30.150;2023-05-29T03:58:32;99908.11;;;11.06;65.76
61474;BME280;53694;49.784;30.150;2023-05-29T03:59:33;99906.95;;;11.07;66.05
61474;BME280;53694;49.784;30.150;2023-05-29T04:00:35;99912.91;;;11.09;65.89
61474;BME280;53694;49.784;30.150;2023-05-29T04:01:37;99885.95;;;10.98;65.48
61474;BME280;53694;49.784;30.150;2023-05-29T04:02:38;99909.87;;;11.14;65.50
61474;BME280;53694;49.784;30.150;2023-05-29T04:03:40;99909.50;;;11.15;65.76
61474;BME280;53694;49.784;30.150;2023-05-29T04:04:41;99903.30;;;11.18;65.97
61474;BME280;53694;49.784;30.150;2023-05-29T04:05:43;99901.77;;;11.21;65.91
61474;BME280;53694;49.784;30.150;2023-05-29T04:06:44;99903.80;;;11.24;66.17
61474;BME280;53694;49.784;30.150;2023-05-29T04:07:46;99906.18;;;11.25;66.10
61474;BME280;53694;49.784;30.150;2023-05-29T04:08:48;99908.30;;;11.32;66.14
61474;BME280;53694;49.784;30.150;2023-05-29T04:09:49;99908.30;;;11.32;66.14
61474;BME280;53694;49.784;30.150;2023-05-29T04:10:51;99910.34;;;11.35;66.17
61474;BME280;53694;49.784;30.150;2023-05-29T04:11:53;99910.84;;;11.41;66.76
61474;BME280;53694;49.784;30.150;2023-05-29T04:12:54;99910.84;;;11.41;66.76
61474;BME280;53694;49.784;30.150;2023-05-29T04:13:56;99909.77;;;11.45;67.17
61474;BME280;53694;49.784;30.150;2023-05-29T04:14:58;99907.89;;;11.49;66.82
61474;BME280;53694;49.784;30.150;2023-05-29T04:16:00;99909.92;;;11.53;66.28
61474;BME280;53694;49.784;30.150;2023-05-29T04:17:01;99913.89;;;11.55;66.17
61474;BME280;53694;49.784;30.150;2023-05-29T04:18:03;99907.34;;;11.60;66.62
61474;BME280;53694;49.784;30.150;2023-05-29T04:19:04;99910.59;;;11.65;66.41
61474;BME280;53694;49.784;30.150;2023-05-29T04:20:07;99913.05;;;11.70;66.55
61474;BME280;53694;49.784;30.150;2023-05-29T04:21:08;99913.12;;;11.74;66.01
61474;BME280;53694;49.784;30.150;2023-05-29T04:22:10;99911.66;;;11.80;65.68
61474;BME280;53694;49.784;30.150;2023-05-29T04:23:12;99916.82;;;11.82;64.49
61474;BME280;53694;49.784;30.150;2023-05-29T04:24:16;99909.80;;;11.84;64.41
61474;BME280;53694;49.784;30.150;2023-05-29T04:25:18;99917.34;;;11.87;64.21
61474;BME280;53694;49.784;30.150;2023-05-29T04:26:22;99915.83;;;11.90;64.08
61474;BME280;53694;49.784;30.150;2023-05-29T04:27:23;99918.63;;;11.93;63.85
61474;BME280;53694;49.784;30.150;2023-05-29T04:28:25;99919.50;;;11.97;63.89
61474;BME280;53694;49.784;30.150;2023-05-29T04:29:26;99916.03;;;12.00;63.99
61474;BME280;53694;49.784;30.150;2023-05-29T04:30:28;99916.89;;;12.05;64.05
61474;BME280;53694;49.784;30.150;2023-05-29T04:31:30;99931.52;;;12.09;63.83
61474;BME280;53694;49.784;30.150;2023-05-29T04:32:32;99919.00;;;12.11;64.16
61474;BME280;53694;49.784;30.150;2023-05-29T04:33:34;99920.59;;;12.12;63.93
61474;BME280;53694;49.784;30.150;2023-05-29T04:34:35;99912.73;;;12.14;63.84
61474;BME280;53694;49.784;30.150;2023-05-29T04:35:37;99921.08;;;12.18;63.83
61474;BME280;53694;49.784;30.150;2023-05-29T04:36:38;99918.77;;;12.20;63.80
61474;BME280;53694;49.784;30.150;2023-05-29T04:37:40;99918.84;;;12.23;64.04
61474;BME280;53694;49.784;30.150;2023-05-29T04:38:41;99923.25;;;12.28;64.02
61474;BME280;53694;49.784;30.150;2023-05-29T04:39:43;99918.95;;;12.31;63.73
61474;BME280;53694;49.784;30.150;2023-05-29T04:40:45;99921.77;;;12.34;63.25
61474;BME280;53694;49.784;30.150;2023-05-29T04:41:47;99919.88;;;12.38;63.22
61474;BME280;53694;49.784;30.150;2023-05-29T04:42:48;99919.16;;;12.41;63.02
61474;BME280;53694;49.784;30.150;2023-05-29T04:43:50;99918.77;;;12.43;62.82
61474;BME280;53694;49.784;30.150;2023-05-29T04:44:52;99912.89;;;12.44;62.65
61474;BME280;53694;49.784;30.150;2023-05-29T04:45:54;99914.92;;;12.47;62.47
61474;BME280;53694;49.784;30.150;2023-05-29T04:46:55;99916.95;;;12.50;62.82
61474;BME280;53694;49.784;30.150;2023-05-29T04:47:57;99918.98;;;12.54;62.95
61474;BME280;53694;49.784;30.150;2023-05-29T04:48:58;99911.92;;;12.56;62.75
61474;BME280;53694;49.784;30.150;2023-05-29T04:50:00;99914.73;;;12.60;62.40
61474;BME280;53694;49.784;30.150;2023-05-29T04:51:02;99914.42;;;12.65;61.71
61474;BME280;53694;49.784;30.150;2023-05-29T04:52:04;99914.42;;;12.65;61.71
61474;BME280;53694;49.784;30.150;2023-05-29T04:53:06;99911.32;;;12.66;61.48
61474;BME280;53694;49.784;30.150;2023-05-29T04:54:08;99914.48;;;12.68;61.06
61474;BME280;53694;49.784;30.150;2023-05-29T04:55:10;99913.31;;;12.69;60.88
61474;BME280;53694;49.784;30.150;2023-05-29T04:56:12;99914.97;;;12.74;60.84
61474;BME280;53694;49.784;30.150;2023-05-29T04:57:14;99916.20;;;12.76;60.89
61474;BME280;53694;49.784;30.150;2023-05-29T04:58:15;99915.88;;;12.82;61.00
61474;BME280;53694;49.784;30.150;2023-05-29T04:59:17;99913.98;;;12.86;60.96
61474;BME280;53694;49.784;30.150;2023-05-29T05:00:19;99914.48;;;12.91;60.05
61474;BME280;53694;49.784;30.150;2023-05-29T05:01:21;99914.16;;;12.96;60.59
61474;BME280;53694;49.784;30.150;2023-05-29T05:02:22;99917.39;;;13.02;59.65
61474;BME280;53694;49.784;30.150;2023-05-29T05:03:24;99915.09;;;13.08;59.59
61474;BME280;53694;49.784;30.150;2023-05-29T05:04:25;99912.05;;;13.13;60.06
61474;BME280;53694;49.784;30.150;2023-05-29T05:05:27;99908.20;;;13.21;59.35
61474;BME280;53694;49.784;30.150;2023-05-29T05:06:28;99908.20;;;13.21;59.35
61474;BME280;53694;49.784;30.150;2023-05-29T05:07:30;99915.44;;;13.29;59.60
61474;BME280;53694;49.784;30.150;2023-05-29T05:08:31;99914.31;;;13.34;59.07
61474;BME280;53694;49.784;30.150;2023-05-29T05:09:33;99915.98;;;13.38;59.00
61474;BME280;53694;49.784;30.150;2023-05-29T05:10:35;99913.25;;;13.42;58.73
61474;BME280;53694;49.784;30.150;2023-05-29T05:11:37;99911.72;;;13.44;57.96
61474;BME280;53694;49.784;30.150;2023-05-29T05:12:38;99912.56;;;13.48;57.85
61474;BME280;53694;49.784;30.150;2023-05-29T05:13:40;99911.83;;;13.52;57.44
61474;BME280;53694;49.784;30.150;2023-05-29T05:14:41;99913.52;;;13.60;56.98
61474;BME280;53694;49.784;30.150;2023-05-29T05:15:43;99913.52;;;13.60;56.98
61474;BME280;53694;49.784;30.150;2023-05-29T05:16:45;99921.45;;;13.65;57.20
61474;BME280;53694;49.784;30.150;2023-05-29T05:17:46;99911.26;;;13.69;56.86
61474;BME280;53694;49.784;30.150;2023-05-29T05:18:48;99916.00;;;13.72;56.66
61474;BME280;53694;49.784;30.150;2023-05-29T05:19:49;99914.08;;;13.76;56.68
61474;BME280;53694;49.784;30.150;2023-05-29T05:20:51;99914.52;;;13.78;56.74
61474;BME280;53694;49.784;30.150;2023-05-29T05:21:52;99915.74;;;13.81;56.67
61474;BME280;53694;49.784;30.150;2023-05-29T05:22:54;99916.94;;;13.83;56.42
61474;BME280;53694;49.784;30.150;2023-05-29T05:23:55;99919.36;;;13.88;57.22
61474;BME280;53694;49.784;30.150;2023-05-29T05:24:57;99908.80;;;13.94;57.42
61474;BME280;53694;49.784;30.150;2023-05-29T05:25:58;99916.39;;;14.04;56.07
61474;BME280;53694;49.784;30.150;2023-05-29T05:27:00;99916.39;;;14.04;56.07
61474;BME280;53694;49.784;30.150;2023-05-29T05:28:02;99914.08;;;14.10;55.48
61474;BME280;53694;49.784;30.150;2023-05-29T05:29:04;99916.52;;;14.15;54.95
61474;BME280;53694;49.784;30.150;2023-05-29T05:30:07;99914.20;;;14.20;54.92
61474;BME280;53694;49.784;30.150;2023-05-29T05:31:08;99915.04;;;14.24;54.63
61474;BME280;53694;49.784;30.150;2023-05-29T05:32:10;99915.87;;;14.29;54.50
61474;BME280;53694;49.784;30.150;2023-05-29T05:33:12;99912.76;;;14.34;54.02